Aktualne dane pomiarowe

Uwaga, wersja testowa! Automatyczne pobieranie danych za pomocą narzędzi lub skryptów to umożliwiających jest zabronione.

Dane meteo z obszaru Polski uzyskane na podstawie depesz SYNOP pobieranych co godzinę z NWS. Najedź myszką na symbol przedstawiony w tabeli, aby uzyskać informacje co do jego znaczenia. Prosimy pamiętać, że to testowa wersja strony, która jeszcze nie jest ukończona. Stworzono również jest krótki FAQ dotyczący korzystania z tej podstrony Anomalie temperatury w chwili obecnej odniesione są do okresu referencyjnego 1951-2016. Okres ten będzie później zmieniony na 1981-2010. Kliknij ikonę aby pobrać plik CSV. Kliknij ikonę aby wygenerować mapę synoptyczną dla danego terminu.

Wybierz Datę:    

        

Przemyśl (12695)

Dane terminowe dla wybranej stacji. Kliknij datę, aby otrzymać dane z tego terminu dla wszystkich stacji.

TemperaturaZachmurzenieWiatrCiśnienieOpadyPogoda
 Data t td wb tx tn tg rh  Nt Nl Cl Cm Ch ws wd g1 g2 wx mslp ppp ch 24h 12h t ww ww w1 w2  
2019-07-04 23:00:00 13.9 6.6 9.7--- 61---2wx---1018.6 985.4 -0.8---------
2019-07-04 22:00:00 15.0 6.4 10.1--- 56---2wx---1018.9 985.8 -0.3---wx-----
2019-07-04 21:00:00 15.0 7.4 10.6--- 60---2wx---1019.2 986.0 0.0---wx-----
2019-07-04 20:00:00 16.6 7.0 11.1--- 53---2wx---1019.1 986.2 0.0---wx-----
2019-07-04 19:00:00 18.5 6.1 11.7--- 44---2wx---1018.8 986.1 -0.4---wx-----
2019-07-04 18:00:00 20.1 5.9 12.3 22.7 9.7- 40---1----1018.5 986.0 -0.9- 0.012wx-----
2019-07-04 17:00:00 21.6 5.5 12.9--- 35---2----1018.7 986.3 -0.9---wx-----
2019-07-04 16:00:00 21.9 5.2 12.9--- 34---0----1018.9 986.5 -1.0---------
2019-07-04 15:00:00 21.8 4.9 12.7--- 33---4----1019.2 986.8 -1.0---wx-----
2019-07-04 14:00:00 22.3 5.4 13.1--- 33---3----1019.5 987.2 -0.8---wx-----
2019-07-04 13:00:00 22.6 6.1 13.5--- 34---3----1019.8 987.5 -0.7---wx-----
2019-07-04 12:00:00 21.3 5.8 12.8--- 36---0----1020.3 987.8 -0.4---------
2019-07-04 11:00:00 21.1 6.8 13.1--- 40---3----1020.5 988.0 -0.3---wx-----
2019-07-04 10:00:00 19.9 6.3 12.4--- 41---2----1020.9 988.2 -0.2---wx-----
2019-07-04 09:00:00 19.4 5.9 12.0--- 41---2----1020.9 988.2 -0.2---wx-----
2019-07-04 08:00:00 18.7 6.0 11.7--- 43---2----1021.0 988.2 0.0---wx-----
2019-07-04 07:00:00 18.0 8.2 12.3--- 53---0----1021.3 988.4 0.4---------
2019-07-04 06:00:00 16.0 7.8 11.2 22.7 9.7 8 58---2----1021.6 988.5 0.3 0.0 0.012wx---- 11.4
2019-07-04 05:00:00 14.5 6.5 9.9--- 59---2wx---1021.4 988.1 0.0---wx-----
2019-07-04 04:00:00 11.2 6.8 8.5--- 74---2wx---1021.7 988.0 0.0---wx-----
2019-07-04 03:00:00 10.3 6.3 7.8--- 76---2wx---1021.9 988.1 0.0---wx-----
2019-07-04 02:00:00 10.8 6.3 8.1--- 74---2wx---1021.8 988.0 0.0---wx-----
2019-07-04 01:00:00 10.6 7.0 8.3--- 78---2wx---1021.7 988.0 0.0---wx-----
2019-07-04 00:00:00 12.4 4.9 8.2--- 60---1----1021.5 988.0 0.6- 0.06wx-----
2019-07-03 23:00:00 14.2 4.6 9.0--- 52---1----1021.3 988.0 1.1---wx-----
2019-07-03 22:00:00 15.4 4.8 9.7--- 49---1----1021.2 988.1 2.0---wx-----
2019-07-03 21:00:00 16.4 4.9 10.2--- 47---2----1020.4 987.4 1.6---wx-----
2019-07-03 20:00:00 17.1 5.4 10.7--- 46---2----1019.8 986.9 1.1---wx-----
2019-07-03 19:00:00 18.1 5.5 11.2--- 44---3----1018.9 986.1 0.5---wx-----
2019-07-03 18:00:00 19.7 6.0 12.2 22.7 13.5- 41---2----1018.4 985.8 0.4- 0.012wx-----
2019-07-03 17:00:00 21.4 5.9 12.9--- 36---2----1018.2 985.7 -0.2---wx-----
2019-07-03 16:00:00 22.1 5.2 13.0--- 33---3----1017.9 985.6 -0.5---wx-----
2019-07-03 15:00:00 22.5 6.0 13.4--- 34---3----1017.7 985.4 -0.6---wx-----
2019-07-03 14:00:00 21.6 7.3 13.6--- 40---3----1018.3 985.9 -0.2---wx-----
2019-07-03 13:00:00 21.7 7.2 13.6--- 39---4wx---1018.4 986.0 0.0---wx-----
2019-07-03 12:00:00 21.8 8.1 14.0--- 41---4wx---1018.5 986.1 0.3- 0.06wx-----
2019-07-03 11:00:00 21.4 8.0 13.8--- 42---3----1018.5 986.0 0.0---wx-----
2019-07-03 10:00:00 21.0 8.1 13.6--- 43---3----1018.4 985.9 0.4---wx-----
2019-07-03 09:00:00 21.0 8.7 13.9--- 45---0----1018.3 985.8 0.4---------
2019-07-03 08:00:00 19.4 8.4 13.1--- 49---2----1018.5 985.9 0.4---wx-----
2019-07-03 07:00:00 18.5 10.4 13.6--- 59---2----1018.3 985.5 0.3---wx-----
2019-07-03 06:00:00 17.9 10.0 13.1 27.2 13.5 13 60---1----1018.2 985.4 0.5 0.0 0.012wx---- 7.6
2019-07-03 05:00:00 17.4 9.3 12.6--- 59---2----1018.3 985.5 0.8---wx-----
2019-07-03 04:00:00 14.6 10.8 12.1--- 78---2----1018.4 985.3 0.9---wx-----
2019-07-03 03:00:00 13.7 10.7 11.7--- 82---2----1018.1 984.9 0.6---wx-----
2019-07-03 02:00:00 15.2 9.7 11.8--- 70---2wx---1017.7 984.7 0.4---wx-----
2019-07-03 01:00:00 17.1 8.2 11.9--- 56---2----1017.2 984.4 0.2---wx-----
2019-07-03 00:00:00 16.6 10.2 12.6--- 66---3wx---1017.2 984.3 0.4- 0.06wx-----
5.6 ms

 

Print Friendly, PDF & Email